KTMB

Miami Executive Airport

Miami, Florida, USA
METAR KTMB 241453Z 00000KT 10SM FEW033 31/22 A3006 RMK AO2 SLP178 T03060222 51010
Observed Flight Rules
Jun-24 @ 14:53 UTC (13 minutes ago) Visual Flight Rules
Visibility Clouds
10 miles
  • Few at 3,300' AGL
Temperatures Readings
Current 31°C / 88°F
Dewpoint 22°C / 72°F
Humidity 59%
Altimeter 30.06" Hg
Pressure 1017.8 hPa
Elevation 2
METAR KTMB 241453Z 00000KT 10SM FEW033 31/22 A3006 RMK AO2 SLP178 T03060222 51010
Observed Flight Rules
Jun-24 @ 14:53 UTC
(13 minutes ago)
VFR
Clouds
  • Few at 3,300' AGL
Temperature Dewpoint
31°C / 88°F 22°C / 72°F
Humidity Altimeter Pressure
59% 30.06" Hg 1017.8 hPa